sensor_id;sensor_type;location;lat;lon;timestamp;P1;durP1;ratioP1;P2;durP2;ratioP2
64959;SDS011;51487;52.266;10.542;2022-07-24T00:00:26;7.05;;;2.67;;
64959;SDS011;51487;52.266;10.542;2022-07-24T00:02:51;11.63;;;2.78;;
64959;SDS011;51487;52.266;10.542;2022-07-24T00:05:17;10.93;;;3.08;;
64959;SDS011;51487;52.266;10.542;2022-07-24T00:07:42;6.85;;;2.92;;
64959;SDS011;51487;52.266;10.542;2022-07-24T00:10:08;5.28;;;3.40;;
64959;SDS011;51487;52.266;10.542;2022-07-24T00:12:35;6.75;;;3.15;;
64959;SDS011;51487;52.266;10.542;2022-07-24T00:15:02;4.70;;;3.00;;
64959;SDS011;51487;52.266;10.542;2022-07-24T00:17:29;5.35;;;3.20;;
64959;SDS011;51487;52.266;10.542;2022-07-24T00:19:55;11.48;;;3.20;;
64959;SDS011;51487;52.266;10.542;2022-07-24T00:22:20;7.05;;;3.45;;
64959;SDS011;51487;52.266;10.542;2022-07-24T00:24:46;19.83;;;3.90;;
64959;SDS011;51487;52.266;10.542;2022-07-24T00:27:11;17.00;;;3.45;;
64959;SDS011;51487;52.266;10.542;2022-07-24T00:29:37;13.90;;;3.50;;
64959;SDS011;51487;52.266;10.542;2022-07-24T00:32:03;8.38;;;3.30;;
64959;SDS011;51487;52.266;10.542;2022-07-24T00:34:29;8.80;;;3.55;;
64959;SDS011;51487;52.266;10.542;2022-07-24T00:36:54;9.63;;;3.22;;
64959;SDS011;51487;52.266;10.542;2022-07-24T00:39:20;11.35;;;3.42;;
64959;SDS011;51487;52.266;10.542;2022-07-24T00:41:45;7.13;;;3.53;;
64959;SDS011;51487;52.266;10.542;2022-07-24T00:44:12;9.90;;;3.40;;
64959;SDS011;51487;52.266;10.542;2022-07-24T00:46:41;13.40;;;3.72;;
64959;SDS011;51487;52.266;10.542;2022-07-24T00:49:10;9.45;;;3.22;;
64959;SDS011;51487;52.266;10.542;2022-07-24T00:51:39;8.93;;;3.53;;
64959;SDS011;51487;52.266;10.542;2022-07-24T00:54:08;6.45;;;3.20;;
64959;SDS011;51487;52.266;10.542;2022-07-24T00:56:36;7.47;;;3.63;;
64959;SDS011;51487;52.266;10.542;2022-07-24T00:59:03;7.82;;;4.03;;
64959;SDS011;51487;52.266;10.542;2022-07-24T01:01:29;7.07;;;3.10;;
64959;SDS011;51487;52.266;10.542;2022-07-24T01:03:56;7.38;;;3.30;;
64959;SDS011;51487;52.266;10.542;2022-07-24T01:06:23;6.25;;;3.42;;
64959;SDS011;51487;52.266;10.542;2022-07-24T01:08:49;7.10;;;3.45;;
64959;SDS011;51487;52.266;10.542;2022-07-24T01:11:16;5.03;;;3.13;;
64959;SDS011;51487;52.266;10.542;2022-07-24T01:13:44;5.78;;;3.40;;
64959;SDS011;51487;52.266;10.542;2022-07-24T01:16:13;6.38;;;3.60;;
64959;SDS011;51487;52.266;10.542;2022-07-24T01:18:39;6.43;;;3.42;;
64959;SDS011;51487;52.266;10.542;2022-07-24T01:21:04;5.07;;;3.42;;
64959;SDS011;51487;52.266;10.542;2022-07-24T01:23:31;9.38;;;3.28;;
64959;SDS011;51487;52.266;10.542;2022-07-24T01:25:57;7.40;;;2.92;;
64959;SDS011;51487;52.266;10.542;2022-07-24T01:28:23;5.88;;;3.15;;
64959;SDS011;51487;52.266;10.542;2022-07-24T01:30:49;6.55;;;3.40;;
64959;SDS011;51487;52.266;10.542;2022-07-24T01:33:17;6.40;;;3.28;;
64959;SDS011;51487;52.266;10.542;2022-07-24T01:35:43;6.68;;;3.40;;
64959;SDS011;51487;52.266;10.542;2022-07-24T01:38:09;5.05;;;3.00;;
64959;SDS011;51487;52.266;10.542;2022-07-24T01:40:35;9.32;;;3.78;;
64959;SDS011;51487;52.266;10.542;2022-07-24T01:43:02;6.18;;;3.20;;
64959;SDS011;51487;52.266;10.542;2022-07-24T01:45:28;5.50;;;3.35;;
64959;SDS011;51487;52.266;10.542;2022-07-24T01:47:53;7.43;;;3.40;;
64959;SDS011;51487;52.266;10.542;2022-07-24T01:50:19;6.13;;;3.92;;
64959;SDS011;51487;52.266;10.542;2022-07-24T01:52:45;6.03;;;3.05;;
64959;SDS011;51487;52.266;10.542;2022-07-24T01:55:10;6.93;;;3.10;;
64959;SDS011;51487;52.266;10.542;2022-07-24T01:57:37;8.38;;;3.20;;
64959;SDS011;51487;52.266;10.542;2022-07-24T02:00:03;6.45;;;3.40;;
64959;SDS011;51487;52.266;10.542;2022-07-24T02:02:33;5.15;;;3.55;;
64959;SDS011;51487;52.266;10.542;2022-07-24T02:04:58;5.55;;;2.95;;
64959;SDS011;51487;52.266;10.542;2022-07-24T02:07:24;6.30;;;2.80;;
64959;SDS011;51487;52.266;10.542;2022-07-24T02:09:49;3.65;;;2.60;;
64959;SDS011;51487;52.266;10.542;2022-07-24T02:12:15;7.10;;;2.65;;
64959;SDS011;51487;52.266;10.542;2022-07-24T02:14:40;5.38;;;2.78;;
64959;SDS011;51487;52.266;10.542;2022-07-24T02:17:06;5.00;;;2.70;;
64959;SDS011;51487;52.266;10.542;2022-07-24T02:19:31;3.58;;;2.30;;
64959;SDS011;51487;52.266;10.542;2022-07-24T02:21:57;5.45;;;2.10;;
64959;SDS011;51487;52.266;10.542;2022-07-24T02:24:23;4.88;;;2.10;;
64959;SDS011;51487;52.266;10.542;2022-07-24T02:26:48;3.38;;;2.22;;
64959;SDS011;51487;52.266;10.542;2022-07-24T02:29:14;9.65;;;2.28;;
64959;SDS011;51487;52.266;10.542;2022-07-24T02:31:40;4.15;;;1.98;;
64959;SDS011;51487;52.266;10.542;2022-07-24T02:34:06;2.78;;;1.80;;
64959;SDS011;51487;52.266;10.542;2022-07-24T02:36:31;3.72;;;1.95;;
64959;SDS011;51487;52.266;10.542;2022-07-24T02:38:57;7.45;;;2.10;;
64959;SDS011;51487;52.266;10.542;2022-07-24T02:41:22;3.60;;;1.90;;
64959;SDS011;51487;52.266;10.542;2022-07-24T02:43:48;4.47;;;2.10;;
64959;SDS011;51487;52.266;10.542;2022-07-24T02:46:14;3.78;;;1.77;;
64959;SDS011;51487;52.266;10.542;2022-07-24T02:48:39;4.32;;;2.00;;
64959;SDS011;51487;52.266;10.542;2022-07-24T02:51:05;5.80;;;2.28;;
64959;SDS011;51487;52.266;10.542;2022-07-24T02:53:30;6.45;;;2.22;;
64959;SDS011;51487;52.266;10.542;2022-07-24T02:55:56;4.97;;;2.10;;
64959;SDS011;51487;52.266;10.542;2022-07-24T02:58:21;3.22;;;1.80;;
64959;SDS011;51487;52.266;10.542;2022-07-24T03:00:47;5.85;;;2.20;;
64959;SDS011;51487;52.266;10.542;2022-07-24T03:03:13;5.38;;;1.90;;
64959;SDS011;51487;52.266;10.542;2022-07-24T03:05:39;5.05;;;1.88;;
64959;SDS011;51487;52.266;10.542;2022-07-24T03:08:04;4.93;;;2.00;;
64959;SDS011;51487;52.266;10.542;2022-07-24T03:10:30;3.90;;;1.85;;
64959;SDS011;51487;52.266;10.542;2022-07-24T03:12:55;4.57;;;1.80;;
64959;SDS011;51487;52.266;10.542;2022-07-24T03:15:21;2.40;;;1.70;;
64959;SDS011;51487;52.266;10.542;2022-07-24T03:17:55;2.42;;;1.70;;
64959;SDS011;51487;52.266;10.542;2022-07-24T03:20:22;5.10;;;1.88;;
64959;SDS011;51487;52.266;10.542;2022-07-24T03:22:50;2.60;;;1.92;;
64959;SDS011;51487;52.266;10.542;2022-07-24T03:25:16;5.97;;;1.77;;
64959;SDS011;51487;52.266;10.542;2022-07-24T03:27:42;2.05;;;1.80;;
64959;SDS011;51487;52.266;10.542;2022-07-24T03:30:08;3.60;;;1.58;;
64959;SDS011;51487;52.266;10.542;2022-07-24T03:32:35;3.65;;;2.15;;
64959;SDS011;51487;52.266;10.542;2022-07-24T03:35:01;5.60;;;1.80;;
64959;SDS011;51487;52.266;10.542;2022-07-24T03:37:27;1.63;;;1.40;;
64959;SDS011;51487;52.266;10.542;2022-07-24T03:39:53;4.85;;;1.70;;
64959;SDS011;51487;52.266;10.542;2022-07-24T03:42:19;5.38;;;1.52;;
64959;SDS011;51487;52.266;10.542;2022-07-24T03:44:45;1.45;;;1.35;;
64959;SDS011;51487;52.266;10.542;2022-07-24T03:47:10;2.63;;;1.40;;
64959;SDS011;51487;52.266;10.542;2022-07-24T03:49:36;3.60;;;1.50;;
64959;SDS011;51487;52.266;10.542;2022-07-24T03:52:01;4.93;;;1.67;;
64959;SDS011;51487;52.266;10.542;2022-07-24T03:54:28;1.63;;;1.33;;
64959;SDS011;51487;52.266;10.542;2022-07-24T03:56:53;1.65;;;1.50;;
64959;SDS011;51487;52.266;10.542;2022-07-24T03:59:19;2.05;;;1.70;;
64959;SDS011;51487;52.266;10.542;2022-07-24T04:01:45;2.83;;;1.80;;
64959;SDS011;51487;52.266;10.542;2022-07-24T04:04:11;2.40;;;1.70;;
64959;SDS011;51487;52.266;10.542;2022-07-24T04:06:37;3.50;;;1.75;;
64959;SDS011;51487;52.266;10.542;2022-07-24T04:09:03;6.63;;;1.80;;
64959;SDS011;51487;52.266;10.542;2022-07-24T04:11:30;1.65;;;1.50;;
64959;SDS011;51487;52.266;10.542;2022-07-24T04:13:56;1.73;;;1.60;;
64959;SDS011;51487;52.266;10.542;2022-07-24T04:16:21;3.78;;;1.90;;
64959;SDS011;51487;52.266;10.542;2022-07-24T04:18:47;2.42;;;1.80;;
64959;SDS011;51487;52.266;10.542;2022-07-24T04:21:13;2.13;;;1.58;;
64959;SDS011;51487;52.266;10.542;2022-07-24T04:23:38;3.65;;;1.75;;
64959;SDS011;51487;52.266;10.542;2022-07-24T04:26:04;3.67;;;1.70;;
64959;SDS011;51487;52.266;10.542;2022-07-24T04:28:30;2.70;;;2.00;;
64959;SDS011;51487;52.266;10.542;2022-07-24T04:30:56;2.53;;;1.85;;
64959;SDS011;51487;52.266;10.542;2022-07-24T04:33:21;1.80;;;1.70;;
64959;SDS011;51487;52.266;10.542;2022-07-24T04:35:47;5.70;;;1.92;;
64959;SDS011;51487;52.266;10.542;2022-07-24T04:38:13;4.03;;;1.73;;
64959;SDS011;51487;52.266;10.542;2022-07-24T04:40:39;2.53;;;1.83;;
64959;SDS011;51487;52.266;10.542;2022-07-24T04:43:06;2.55;;;1.58;;
64959;SDS011;51487;52.266;10.542;2022-07-24T04:45:31;2.75;;;1.50;;
64959;SDS011;51487;52.266;10.542;2022-07-24T04:47:57;2.55;;;1.58;;
64959;SDS011;51487;52.266;10.542;2022-07-24T04:50:22;2.38;;;1.58;;
64959;SDS011;51487;52.266;10.542;2022-07-24T04:52:48;1.58;;;1.40;;
64959;SDS011;51487;52.266;10.542;2022-07-24T04:55:14;1.80;;;1.58;;
64959;SDS011;51487;52.266;10.542;2022-07-24T04:57:40;4.95;;;2.15;;
64959;SDS011;51487;52.266;10.542;2022-07-24T05:00:06;2.25;;;1.63;;
64959;SDS011;51487;52.266;10.542;2022-07-24T05:02:35;4.57;;;1.60;;
64959;SDS011;51487;52.266;10.542;2022-07-24T05:05:01;4.18;;;1.60;;
64959;SDS011;51487;52.266;10.542;2022-07-24T05:07:26;2.40;;;1.55;;
64959;SDS011;51487;52.266;10.542;2022-07-24T05:09:52;3.13;;;1.58;;
64959;SDS011;51487;52.266;10.542;2022-07-24T05:12:18;1.98;;;1.42;;
64959;SDS011;51487;52.266;10.542;2022-07-24T05:14:43;3.22;;;1.50;;
64959;SDS011;51487;52.266;10.542;2022-07-24T05:17:09;2.80;;;1.67;;
64959;SDS011;51487;52.266;10.542;2022-07-24T05:19:35;1.95;;;1.40;;
64959;SDS011;51487;52.266;10.542;2022-07-24T05:22:00;2.10;;;1.40;;
64959;SDS011;51487;52.266;10.542;2022-07-24T05:24:26;2.33;;;1.67;;
64959;SDS011;51487;52.266;10.542;2022-07-24T05:26:51;2.45;;;1.35;;
64959;SDS011;51487;52.266;10.542;2022-07-24T05:29:17;2.50;;;1.50;;
64959;SDS011;51487;52.266;10.542;2022-07-24T05:31:43;3.60;;;1.42;;
64959;SDS011;51487;52.266;10.542;2022-07-24T05:34:09;1.80;;;1.40;;
64959;SDS011;51487;52.266;10.542;2022-07-24T05:36:35;4.20;;;1.70;;
64959;SDS011;51487;52.266;10.542;2022-07-24T05:39:01;1.60;;;1.20;;
64959;SDS011;51487;52.266;10.542;2022-07-24T05:41:27;3.72;;;1.40;;
64959;SDS011;51487;52.266;10.542;2022-07-24T05:43:52;2.75;;;1.33;;
64959;SDS011;51487;52.266;10.542;2022-07-24T05:46:18;1.42;;;1.30;;
64959;SDS011;51487;52.266;10.542;2022-07-24T05:48:44;2.50;;;1.10;;
64959;SDS011;51487;52.266;10.542;2022-07-24T05:51:10;1.42;;;1.33;;
64959;SDS011;51487;52.266;10.542;2022-07-24T05:53:35;2.95;;;1.50;;
64959;SDS011;51487;52.266;10.542;2022-07-24T05:56:01;2.95;;;1.55;;
64959;SDS011;51487;52.266;10.542;2022-07-24T05:58:26;3.83;;;1.33;;
64959;SDS011;51487;52.266;10.542;2022-07-24T06:00:52;2.08;;;1.15;;
64959;SDS011;51487;52.266;10.542;2022-07-24T06:03:17;2.22;;;1.38;;
64959;SDS011;51487;52.266;10.542;2022-07-24T06:05:43;2.10;;;1.48;;
64959;SDS011;51487;52.266;10.542;2022-07-24T06:08:08;2.50;;;1.40;;
64959;SDS011;51487;52.266;10.542;2022-07-24T06:10:34;3.22;;;1.30;;
64959;SDS011;51487;52.266;10.542;2022-07-24T06:13:00;1.40;;;1.30;;
64959;SDS011;51487;52.266;10.542;2022-07-24T06:15:25;2.47;;;1.23;;
64959;SDS011;51487;52.266;10.542;2022-07-24T06:17:51;2.60;;;1.30;;
64959;SDS011;51487;52.266;10.542;2022-07-24T06:20:17;1.63;;;1.30;;
64959;SDS011;51487;52.266;10.542;2022-07-24T06:22:43;2.47;;;1.30;;
64959;SDS011;51487;52.266;10.542;2022-07-24T06:25:09;1.52;;;1.20;;
64959;SDS011;51487;52.266;10.542;2022-07-24T06:27:42;3.55;;;1.30;;
64959;SDS011;51487;52.266;10.542;2022-07-24T06:30:21;1.38;;;1.20;;
64959;SDS011;51487;52.266;10.542;2022-07-24T06:32:49;6.38;;;1.50;;
64959;SDS011;51487;52.266;10.542;2022-07-24T06:35:18;3.22;;;0.93;;
64959;SDS011;51487;52.266;10.542;2022-07-24T06:37:44;3.10;;;1.30;;
64959;SDS011;51487;52.266;10.542;2022-07-24T06:40:09;2.28;;;1.10;;
64959;SDS011;51487;52.266;10.542;2022-07-24T06:42:36;1.95;;;1.25;;
64959;SDS011;51487;52.266;10.542;2022-07-24T06:45:02;1.92;;;1.25;;
64959;SDS011;51487;52.266;10.542;2022-07-24T06:47:29;2.67;;;1.15;;
64959;SDS011;51487;52.266;10.542;2022-07-24T06:49:54;5.55;;;1.23;;
64959;SDS011;51487;52.266;10.542;2022-07-24T06:52:20;1.58;;;1.27;;
64959;SDS011;51487;52.266;10.542;2022-07-24T06:54:47;2.85;;;1.45;;
64959;SDS011;51487;52.266;10.542;2022-07-24T06:57:12;1.58;;;1.27;;
64959;SDS011;51487;52.266;10.542;2022-07-24T06:59:38;2.42;;;1.13;;
64959;SDS011;51487;52.266;10.542;2022-07-24T07:02:04;4.88;;;1.27;;
64959;SDS011;51487;52.266;10.542;2022-07-24T07:04:30;1.75;;;1.20;;
64959;SDS011;51487;52.266;10.542;2022-07-24T07:06:56;3.63;;;1.13;;
64959;SDS011;51487;52.266;10.542;2022-07-24T07:09:21;3.88;;;1.30;;
64959;SDS011;51487;52.266;10.542;2022-07-24T07:11:47;2.17;;;1.20;;
64959;SDS011;51487;52.266;10.542;2022-07-24T07:14:12;0.90;;;0.90;;
64959;SDS011;51487;52.266;10.542;2022-07-24T07:16:38;2.15;;;1.15;;
64959;SDS011;51487;52.266;10.542;2022-07-24T07:19:04;1.67;;;1.10;;
64959;SDS011;51487;52.266;10.542;2022-07-24T07:21:29;2.70;;;1.23;;
64959;SDS011;51487;52.266;10.542;2022-07-24T07:23:55;2.05;;;1.13;;
64959;SDS011;51487;52.266;10.542;2022-07-24T07:26:20;1.55;;;1.13;;
64959;SDS011;51487;52.266;10.542;2022-07-24T07:28:45;2.20;;;1.10;;
64959;SDS011;51487;52.266;10.542;2022-07-24T07:31:11;1.98;;;1.08;;
64959;SDS011;51487;52.266;10.542;2022-07-24T07:33:37;5.63;;;1.33;;
64959;SDS011;51487;52.266;10.542;2022-07-24T07:36:03;2.78;;;1.05;;
64959;SDS011;51487;52.266;10.542;2022-07-24T07:38:28;2.45;;;1.13;;
64959;SDS011;51487;52.266;10.542;2022-07-24T07:40:54;2.60;;;0.93;;
64959;SDS011;51487;52.266;10.542;2022-07-24T07:43:20;1.45;;;1.00;;
64959;SDS011;51487;52.266;10.542;2022-07-24T07:45:45;3.38;;;1.20;;
64959;SDS011;51487;52.266;10.542;2022-07-24T07:48:11;1.95;;;1.02;;
64959;SDS011;51487;52.266;10.542;2022-07-24T07:50:36;2.70;;;1.20;;
64959;SDS011;51487;52.266;10.542;2022-07-24T07:53:02;1.90;;;1.10;;
64959;SDS011;51487;52.266;10.542;2022-07-24T07:55:28;2.17;;;1.20;;
64959;SDS011;51487;52.266;10.542;2022-07-24T07:57:54;1.75;;;1.20;;
64959;SDS011;51487;52.266;10.542;2022-07-24T08:00:19;1.55;;;1.10;;
64959;SDS011;51487;52.266;10.542;2022-07-24T08:02:45;2.45;;;1.30;;
64959;SDS011;51487;52.266;10.542;2022-07-24T08:05:11;3.22;;;1.38;;
64959;SDS011;51487;52.266;10.542;2022-07-24T08:07:37;1.33;;;1.23;;
64959;SDS011;51487;52.266;10.542;2022-07-24T08:10:03;2.63;;;1.20;;
64959;SDS011;51487;52.266;10.542;2022-07-24T08:12:30;1.35;;;1.17;;
64959;SDS011;51487;52.266;10.542;2022-07-24T08:14:56;3.55;;;1.20;;
64959;SDS011;51487;52.266;10.542;2022-07-24T08:17:21;1.73;;;1.20;;
64959;SDS011;51487;52.266;10.542;2022-07-24T08:19:47;3.83;;;1.42;;
64959;SDS011;51487;52.266;10.542;2022-07-24T08:22:13;2.53;;;1.35;;
64959;SDS011;51487;52.266;10.542;2022-07-24T08:24:38;3.20;;;1.38;;
64959;SDS011;51487;52.266;10.542;2022-07-24T08:27:05;2.17;;;1.42;;
64959;SDS011;51487;52.266;10.542;2022-07-24T08:29:31;3.83;;;1.40;;
64959;SDS011;51487;52.266;10.542;2022-07-24T08:31:57;3.22;;;1.65;;
64959;SDS011;51487;52.266;10.542;2022-07-24T08:34:22;3.55;;;1.60;;
64959;SDS011;51487;52.266;10.542;2022-07-24T08:36:48;2.47;;;1.50;;
64959;SDS011;51487;52.266;10.542;2022-07-24T08:39:14;2.55;;;1.50;;
64959;SDS011;51487;52.266;10.542;2022-07-24T08:41:40;5.00;;;1.63;;
64959;SDS011;51487;52.266;10.542;2022-07-24T08:44:07;4.38;;;1.88;;
64959;SDS011;51487;52.266;10.542;2022-07-24T08:46:36;3.45;;;2.05;;
64959;SDS011;51487;52.266;10.542;2022-07-24T08:49:06;3.72;;;1.77;;
64959;SDS011;51487;52.266;10.542;2022-07-24T08:51:34;5.93;;;1.83;;
64959;SDS011;51487;52.266;10.542;2022-07-24T08:54:03;2.75;;;1.60;;
64959;SDS011;51487;52.266;10.542;2022-07-24T08:56:30;3.90;;;1.80;;
64959;SDS011;51487;52.266;10.542;2022-07-24T08:58:58;3.47;;;1.63;;
64959;SDS011;51487;52.266;10.542;2022-07-24T09:01:24;3.47;;;2.00;;
64959;SDS011;51487;52.266;10.542;2022-07-24T09:03:51;2.88;;;1.55;;
64959;SDS011;51487;52.266;10.542;2022-07-24T09:06:16;6.38;;;1.90;;
64959;SDS011;51487;52.266;10.542;2022-07-24T09:08:57;3.20;;;1.70;;
64959;SDS011;51487;52.266;10.542;2022-07-24T09:11:27;4.00;;;2.08;;
64959;SDS011;51487;52.266;10.542;2022-07-24T09:13:58;4.47;;;2.00;;
64959;SDS011;51487;52.266;10.542;2022-07-24T09:16:46;5.18;;;2.33;;
64959;SDS011;51487;52.266;10.542;2022-07-24T09:19:12;5.75;;;2.15;;
64959;SDS011;51487;52.266;10.542;2022-07-24T09:21:41;4.50;;;2.08;;
64959;SDS011;51487;52.266;10.542;2022-07-24T09:24:19;4.22;;;2.10;;
64959;SDS011;51487;52.266;10.542;2022-07-24T09:26:50;2.75;;;1.95;;
64959;SDS011;51487;52.266;10.542;2022-07-24T09:29:20;4.82;;;1.92;;
64959;SDS011;51487;52.266;10.542;2022-07-24T09:31:52;5.15;;;2.50;;
64959;SDS011;51487;52.266;10.542;2022-07-24T09:34:19;4.00;;;1.98;;
64959;SDS011;51487;52.266;10.542;2022-07-24T09:36:54;3.10;;;1.90;;
64959;SDS011;51487;52.266;10.542;2022-07-24T09:39:29;3.10;;;2.10;;
64959;SDS011;51487;52.266;10.542;2022-07-24T09:41:57;3.92;;;1.92;;
64959;SDS011;51487;52.266;10.542;2022-07-24T09:44:24;3.00;;;2.00;;
64959;SDS011;51487;52.266;10.542;2022-07-24T09:49:25;3.90;;;2.15;;
64959;SDS011;51487;52.266;10.542;2022-07-24T09:54:44;3.10;;;2.13;;
64959;SDS011;51487;52.266;10.542;2022-07-24T09:59:49;2.25;;;2.03;;
64959;SDS011;51487;52.266;10.542;2022-07-24T10:02:18;3.55;;;2.10;;
64959;SDS011;51487;52.266;10.542;2022-07-24T10:04:48;6.88;;;2.85;;
64959;SDS011;51487;52.266;10.542;2022-07-24T10:07:16;10.68;;;2.33;;
64959;SDS011;51487;52.266;10.542;2022-07-24T10:09:46;3.42;;;2.40;;
64959;SDS011;51487;52.266;10.542;2022-07-24T10:12:19;3.20;;;2.45;;
64959;SDS011;51487;52.266;10.542;2022-07-24T10:14:48;4.97;;;2.33;;
64959;SDS011;51487;52.266;10.542;2022-07-24T10:17:16;2.67;;;2.15;;
64959;SDS011;51487;52.266;10.542;2022-07-24T10:19:47;4.15;;;2.50;;
64959;SDS011;51487;52.266;10.542;2022-07-24T10:22:19;5.10;;;2.22;;
64959;SDS011;51487;52.266;10.542;2022-07-24T10:25:04;3.85;;;2.55;;
64959;SDS011;51487;52.266;10.542;2022-07-24T10:27:37;4.28;;;2.13;;
64959;SDS011;51487;52.266;10.542;2022-07-24T10:30:08;4.40;;;2.33;;
64959;SDS011;51487;52.266;10.542;2022-07-24T10:32:37;4.65;;;2.20;;
64959;SDS011;51487;52.266;10.542;2022-07-24T10:45:45;4.40;;;2.20;;
64959;SDS011;51487;52.266;10.542;2022-07-24T10:53:41;2.63;;;1.80;;
64959;SDS011;51487;52.266;10.542;2022-07-24T11:01:32;5.70;;;2.03;;
64959;SDS011;51487;52.266;10.542;2022-07-24T11:07:07;5.22;;;2.00;;
64959;SDS011;51487;52.266;10.542;2022-07-24T11:09:58;2.60;;;1.85;;
64959;SDS011;51487;52.266;10.542;2022-07-24T11:12:27;4.97;;;1.98;;
64959;SDS011;51487;52.266;10.542;2022-07-24T11:15:02;3.30;;;1.90;;
64959;SDS011;51487;52.266;10.542;2022-07-24T11:17:48;2.85;;;1.98;;
64959;SDS011;51487;52.266;10.542;2022-07-24T11:20:15;1.98;;;1.52;;
64959;SDS011;51487;52.266;10.542;2022-07-24T11:27:57;1.95;;;1.70;;
64959;SDS011;51487;52.266;10.542;2022-07-24T11:30:45;6.25;;;2.20;;
64959;SDS011;51487;52.266;10.542;2022-07-24T11:33:11;2.95;;;1.80;;
64959;SDS011;51487;52.266;10.542;2022-07-24T11:35:45;2.63;;;1.73;;
64959;SDS011;51487;52.266;10.542;2022-07-24T11:38:11;3.22;;;1.70;;
64959;SDS011;51487;52.266;10.542;2022-07-24T11:40:37;2.78;;;1.85;;
64959;SDS011;51487;52.266;10.542;2022-07-24T11:43:04;3.35;;;1.75;;
64959;SDS011;51487;52.266;10.542;2022-07-24T11:45:31;2.20;;;1.65;;
64959;SDS011;51487;52.266;10.542;2022-07-24T11:47:57;2.67;;;1.58;;
64959;SDS011;51487;52.266;10.542;2022-07-24T11:50:26;3.10;;;1.77;;
64959;SDS011;51487;52.266;10.542;2022-07-24T11:52:52;2.72;;;1.70;;
64959;SDS011;51487;52.266;10.542;2022-07-24T11:55:20;1.60;;;1.35;;
64959;SDS011;51487;52.266;10.542;2022-07-24T11:57:51;4.68;;;1.85;;
64959;SDS011;51487;52.266;10.542;2022-07-24T12:00:25;5.60;;;1.77;;
64959;SDS011;51487;52.266;10.542;2022-07-24T12:02:53;2.25;;;1.70;;
64959;SDS011;51487;52.266;10.542;2022-07-24T12:05:23;2.25;;;1.90;;
64959;SDS011;51487;52.266;10.542;2022-07-24T12:07:55;2.25;;;1.70;;
64959;SDS011;51487;52.266;10.542;2022-07-24T12:10:24;2.05;;;1.60;;
64959;SDS011;51487;52.266;10.542;2022-07-24T12:12:51;2.15;;;1.50;;
64959;SDS011;51487;52.266;10.542;2022-07-24T12:15:19;2.17;;;1.70;;
64959;SDS011;51487;52.266;10.542;2022-07-24T12:20:29;4.43;;;1.92;;
64959;SDS011;51487;52.266;10.542;2022-07-24T12:23:01;2.85;;;1.60;;
64959;SDS011;51487;52.266;10.542;2022-07-24T12:25:31;2.35;;;1.50;;
64959;SDS011;51487;52.266;10.542;2022-07-24T12:28:04;3.22;;;1.50;;
64959;SDS011;51487;52.266;10.542;2022-07-24T12:30:39;2.50;;;1.58;;
64959;SDS011;51487;52.266;10.542;2022-07-24T12:33:31;1.98;;;1.60;;
64959;SDS011;51487;52.266;10.542;2022-07-24T12:38:26;2.30;;;1.60;;
64959;SDS011;51487;52.266;10.542;2022-07-24T12:41:01;1.70;;;1.60;;
64959;SDS011;51487;52.266;10.542;2022-07-24T12:43:51;1.75;;;1.60;;
64959;SDS011;51487;52.266;10.542;2022-07-24T12:46:29;7.63;;;1.80;;
64959;SDS011;51487;52.266;10.542;2022-07-24T12:49:03;1.50;;;1.40;;
64959;SDS011;51487;52.266;10.542;2022-07-24T12:51:59;2.42;;;1.58;;
64959;SDS011;51487;52.266;10.542;2022-07-24T12:54:25;2.17;;;1.60;;
64959;SDS011;51487;52.266;10.542;2022-07-24T12:57:07;3.72;;;1.30;;
64959;SDS011;51487;52.266;10.542;2022-07-24T12:59:37;2.28;;;1.40;;
64959;SDS011;51487;52.266;10.542;2022-07-24T13:02:15;3.03;;;1.27;;
64959;SDS011;51487;52.266;10.542;2022-07-24T13:04:47;2.70;;;1.67;;
64959;SDS011;51487;52.266;10.542;2022-07-24T13:07:17;4.50;;;1.70;;
64959;SDS011;51487;52.266;10.542;2022-07-24T13:09:49;3.50;;;1.70;;
64959;SDS011;51487;52.266;10.542;2022-07-24T13:12:16;3.08;;;1.70;;
64959;SDS011;51487;52.266;10.542;2022-07-24T13:14:43;4.72;;;1.65;;
64959;SDS011;51487;52.266;10.542;2022-07-24T13:17:10;2.85;;;1.75;;
64959;SDS011;51487;52.266;10.542;2022-07-24T13:19:39;2.60;;;1.60;;
64959;SDS011;51487;52.266;10.542;2022-07-24T13:22:10;3.47;;;1.50;;
64959;SDS011;51487;52.266;10.542;2022-07-24T13:24:36;3.10;;;1.98;;
64959;SDS011;51487;52.266;10.542;2022-07-24T13:27:03;1.98;;;1.60;;
64959;SDS011;51487;52.266;10.542;2022-07-24T13:29:30;2.60;;;1.58;;
64959;SDS011;51487;52.266;10.542;2022-07-24T13:31:55;2.53;;;1.88;;
64959;SDS011;51487;52.266;10.542;2022-07-24T13:34:22;1.77;;;1.58;;
64959;SDS011;51487;52.266;10.542;2022-07-24T13:36:48;2.13;;;1.70;;
64959;SDS011;51487;52.266;10.542;2022-07-24T13:39:15;4.07;;;1.80;;
64959;SDS011;51487;52.266;10.542;2022-07-24T13:41:41;3.97;;;2.00;;
64959;SDS011;51487;52.266;10.542;2022-07-24T13:44:07;2.25;;;1.80;;
64959;SDS011;51487;52.266;10.542;2022-07-24T13:46:33;3.25;;;1.70;;
64959;SDS011;51487;52.266;10.542;2022-07-24T13:49:00;2.88;;;1.50;;
64959;SDS011;51487;52.266;10.542;2022-07-24T13:51:28;3.03;;;1.83;;
64959;SDS011;51487;52.266;10.542;2022-07-24T13:53:54;2.85;;;1.80;;
64959;SDS011;51487;52.266;10.542;2022-07-24T13:56:20;3.58;;;1.90;;
64959;SDS011;51487;52.266;10.542;2022-07-24T13:58:49;3.78;;;1.55;;
64959;SDS011;51487;52.266;10.542;2022-07-24T14:01:15;2.13;;;1.70;;
64959;SDS011;51487;52.266;10.542;2022-07-24T14:03:42;2.30;;;1.52;;
64959;SDS011;51487;52.266;10.542;2022-07-24T14:06:08;2.92;;;1.80;;
64959;SDS011;51487;52.266;10.542;2022-07-24T14:08:35;3.13;;;1.90;;
64959;SDS011;51487;52.266;10.542;2022-07-24T14:11:02;6.15;;;1.60;;
64959;SDS011;51487;52.266;10.542;2022-07-24T14:13:28;6.18;;;2.58;;
64959;SDS011;51487;52.266;10.542;2022-07-24T14:15:54;2.53;;;2.00;;
64959;SDS011;51487;52.266;10.542;2022-07-24T14:18:20;2.78;;;1.80;;
64959;SDS011;51487;52.266;10.542;2022-07-24T14:20:46;3.58;;;1.80;;
64959;SDS011;51487;52.266;10.542;2022-07-24T14:23:12;2.38;;;1.60;;
64959;SDS011;51487;52.266;10.542;2022-07-24T14:25:37;2.15;;;1.80;;
64959;SDS011;51487;52.266;10.542;2022-07-24T14:28:03;2.38;;;1.67;;
64959;SDS011;51487;52.266;10.542;2022-07-24T14:30:29;4.28;;;1.88;;
64959;SDS011;51487;52.266;10.542;2022-07-24T14:32:55;3.85;;;1.92;;
64959;SDS011;51487;52.266;10.542;2022-07-24T14:35:21;2.90;;;2.10;;
64959;SDS011;51487;52.266;10.542;2022-07-24T14:37:47;3.58;;;1.90;;
64959;SDS011;51487;52.266;10.542;2022-07-24T14:40:12;6.07;;;1.98;;
64959;SDS011;51487;52.266;10.542;2022-07-24T14:42:38;3.47;;;1.75;;
64959;SDS011;51487;52.266;10.542;2022-07-24T14:45:04;4.03;;;1.83;;
64959;SDS011;51487;52.266;10.542;2022-07-24T14:47:30;3.22;;;1.90;;
64959;SDS011;51487;52.266;10.542;2022-07-24T14:49:56;4.15;;;2.00;;
64959;SDS011;51487;52.266;10.542;2022-07-24T14:52:22;4.50;;;1.75;;
64959;SDS011;51487;52.266;10.542;2022-07-24T14:54:48;3.13;;;1.92;;
64959;SDS011;51487;52.266;10.542;2022-07-24T14:57:15;2.88;;;1.90;;
64959;SDS011;51487;52.266;10.542;2022-07-24T14:59:41;2.67;;;1.80;;
64959;SDS011;51487;52.266;10.542;2022-07-24T15:02:08;5.07;;;1.90;;
64959;SDS011;51487;52.266;10.542;2022-07-24T15:04:35;3.75;;;1.80;;
64959;SDS011;51487;52.266;10.542;2022-07-24T15:07:01;3.28;;;1.80;;
64959;SDS011;51487;52.266;10.542;2022-07-24T15:09:28;4.40;;;1.83;;
64959;SDS011;51487;52.266;10.542;2022-07-24T15:11:53;2.33;;;1.88;;
64959;SDS011;51487;52.266;10.542;2022-07-24T15:14:19;2.58;;;2.10;;
64959;SDS011;51487;52.266;10.542;2022-07-24T15:16:45;5.18;;;2.40;;